Time;durP1;ratioP1;P1;durP2;ratioP2;P2;SDS_P1;SDS_P2;PMS_P1;PMS_P2;Temp;Humidity;BMP_temperature;BMP_pressure;BME280_temperature;BME280_humidity;BME280_pressure;Samples;Min_cycle;Max_cycle;Signal;HPM_P1;HPM_P2
2022/09/26 00:01:42;;;;;;;9.10;3.90;;;;;11.40;97141.80;;;;111096;1248;41262;-62
2022/09/26 00:04:18;;;;;;;9.60;4.10;;;;;11.40;97130.60;;;;111136;1247;41133;-62
2022/09/26 00:06:54;;;;;;;7.80;3.30;;;;;11.50;97130.00;;;;111020;1248;41266;-62
2022/09/26 00:09:25;;;;;;;8.20;2.90;;;;;11.50;97129.40;;;;111040;1248;41213;-60
2022/09/26 00:11:54;;;;;;;;;;;;;11.50;97126.00;;;;111025;1248;41544;-62
2022/09/26 00:14:27;;;;;;;6.50;2.80;;;;;11.50;97124.20;;;;111092;1247;41413;-62
2022/09/26 00:16:57;;;;;;;6.00;2.60;;;;;11.50;97121.40;;;;111055;1248;42341;-62
2022/09/26 00:19:27;;;;;;;7.70;3.30;;;;;11.50;97112.60;;;;111087;1248;41118;-62
2022/09/26 00:21:56;;;;;;;7.70;3.10;;;;;11.60;97107.80;;;;111096;1247;41147;-62
2022/09/26 00:24:26;;;;;;;7.20;3.00;;;;;11.60;97112.20;;;;111050;1248;41912;-62
2022/09/26 00:26:55;;;;;;;7.70;3.00;;;;;11.60;97110.00;;;;111077;1247;41301;-62
2022/09/26 00:29:26;;;;;;;8.90;3.90;;;;;11.60;97106.20;;;;111090;1247;41667;-62
2022/09/26 00:31:56;;;;;;;;;;;;;11.50;97102.60;;;;111098;1248;41637;-62
2022/09/26 00:34:26;;;;;;;6.30;2.50;;;;;11.44;97094.80;;;;111104;1248;41150;-62
2022/09/26 00:36:55;;;;;;;7.20;2.80;;;;;11.40;97091.20;;;;110841;1250;41207;-62
2022/09/26 00:39:24;;;;;;;7.80;3.00;;;;;11.40;97089.60;;;;111154;1248;41339;-62
2022/09/26 00:41:53;;;;;;;7.20;3.00;;;;;11.40;97094.20;;;;111115;1247;41673;-62
2022/09/26 00:44:55;;;;;;;5.30;2.30;;;;;11.40;97091.80;;;;111122;1248;41653;-62
2022/09/26 00:48:03;;;;;;;6.30;2.60;;;;;11.40;97092.60;;;;110980;1248;41621;-62
2022/09/26 00:50:37;;;;;;;5.50;2.40;;;;;11.40;97093.40;;;;110513;1254;41562;-61
2022/09/26 00:53:16;;;;;;;6.60;2.70;;;;;11.40;97087.00;;;;110301;1256;41392;-61
2022/09/26 00:56:12;;;;;;;6.80;2.80;;;;;11.38;97091.80;;;;110843;1249;41551;-61
2022/09/26 00:58:45;;;;;;;5.80;2.70;;;;;11.40;97094.40;;;;110759;1249;41602;-61
2022/09/26 01:01:14;;;;;;;5.20;2.30;;;;;11.40;97090.00;;;;111059;1249;41135;-61
2022/09/26 01:03:44;;;;;;;9.60;2.70;;;;;11.40;97092.20;;;;110734;1249;42012;-61
2022/09/26 01:06:14;;;;;;;5.60;2.50;;;;;11.40;97085.80;;;;111091;1248;41491;-61
2022/09/26 01:08:47;;;;;;;7.10;3.00;;;;;11.46;97090.20;;;;111096;1248;41934;-62
2022/09/26 01:11:19;;;;;;;7.70;3.30;;;;;11.40;97084.40;;;;111063;1247;41569;-61
2022/09/26 01:13:50;;;;;;;8.80;3.90;;;;;11.40;97079.20;;;;111031;1248;41124;-61
2022/09/26 01:16:19;;;;;;;8.00;3.90;;;;;11.30;97074.20;;;;110989;1250;41230;-61
2022/09/26 01:18:48;;;;;;;7.10;3.10;;;;;11.30;97074.40;;;;111006;1250;42020;-62
2022/09/26 01:21:36;;;;;;;6.50;2.70;;;;;11.30;97079.00;;;;110920;1250;41617;-62
2022/09/26 01:24:26;;;;;;;5.70;2.40;;;;;11.30;97080.40;;;;110956;1249;41141;-61
2022/09/26 01:27:03;;;;;;;6.30;2.60;;;;;11.40;97077.80;;;;111030;1247;41170;-60
2022/09/26 01:29:49;;;;;;;7.80;3.40;;;;;11.40;97075.00;;;;110888;1248;41617;-61
2022/09/26 01:35:36;;;;;;;7.50;3.30;;;;;11.34;97067.80;;;;111006;1248;41153;-62
2022/09/26 01:38:42;;;;;;;10.50;3.90;;;;;11.30;97072.20;;;;110694;1249;41747;-62
2022/09/26 01:41:10;;;;;;;8.40;3.40;;;;;11.30;97066.00;;;;111058;1248;41137;-62
2022/09/26 01:44:03;;;;;;;6.40;2.90;;;;;11.30;97068.40;;;;111027;1247;41154;-61
2022/09/26 01:46:46;;;;;;;9.80;2.90;;;;;11.40;97068.40;;;;110975;1249;41960;-63
2022/09/26 01:49:24;;;;;;;6.80;2.90;;;;;11.40;97065.00;;;;111090;1247;41139;-62
2022/09/26 01:52:10;;;;;;;7.10;2.70;;;;;11.50;97062.60;;;;111147;1248;41346;-62
2022/09/26 01:55:21;;;;;;;7.40;3.10;;;;;11.56;97063.20;;;;111046;1248;42382;-62
2022/09/26 01:58:19;;;;;;;9.00;3.50;;;;;11.60;97052.40;;;;110676;1250;41619;-62
2022/09/26 02:00:49;;;;;;;7.70;3.20;;;;;11.60;97059.00;;;;110583;1248;41289;-62
2022/09/26 02:03:26;;;;;;;7.80;3.20;;;;;11.60;97049.60;;;;110674;1248;41656;-62
2022/09/26 02:06:09;;;;;;;6.20;2.60;;;;;11.60;97051.20;;;;111093;1248;41265;-61
2022/09/26 02:08:45;;;;;;;6.60;2.60;;;;;11.60;97051.20;;;;110731;1251;41144;-61
2022/09/26 02:11:19;;;;;;;8.20;2.70;;;;;11.70;97053.40;;;;110649;1251;41929;-61
2022/09/26 02:13:56;;;;;;;5.40;2.40;;;;;11.70;97056.00;;;;110567;1250;41467;-61
2022/09/26 02:16:39;;;;;;;7.60;2.80;;;;;11.76;97058.60;;;;110993;1249;42386;-61
2022/09/26 02:19:36;;;;;;;6.60;2.80;;;;;11.80;97062.00;;;;111011;1249;41781;-61
2022/09/26 02:22:06;;;;;;;6.80;2.60;;;;;11.84;97055.00;;;;111062;1247;41263;-62
2022/09/26 02:24:35;;;;;;;5.20;2.50;;;;;11.90;97056.20;;;;111043;1247;41467;-62
2022/09/26 02:27:05;;;;;;;7.30;2.70;;;;;11.90;97055.00;;;;110729;1250;41716;-63
2022/09/26 02:29:35;;;;;;;;;;;;;12.00;97049.40;;;;111174;1247;41963;-60
2022/09/26 02:32:14;;;;;;;6.90;2.80;;;;;12.00;97042.40;;;;110670;1251;41273;-59
2022/09/26 02:34:45;;;;;;;6.50;2.80;;;;;12.00;97046.00;;;;110718;1251;41203;-60
2022/09/26 02:37:15;;;;;;;7.00;2.70;;;;;12.04;97042.00;;;;110575;1251;41276;-61
2022/09/26 02:39:46;;;;;;;6.90;3.10;;;;;12.10;97043.80;;;;110914;1250;41145;-62
2022/09/26 02:42:30;;;;;;;9.10;4.10;;;;;12.10;97043.00;;;;110823;1250;41409;-62
2022/09/26 02:45:31;;;;;;;8.30;3.60;;;;;12.10;97039.60;;;;110958;1248;41740;-62
2022/09/26 02:48:15;;;;;;;8.60;3.50;;;;;12.10;97038.60;;;;110827;1248;41147;-62
2022/09/26 02:51:07;;;;;;;8.50;3.50;;;;;12.00;97034.00;;;;111107;1247;41256;-62
2022/09/26 02:53:51;;;;;;;7.80;3.30;;;;;11.90;97029.80;;;;110885;1251;41680;-62
2022/09/26 02:56:35;;;;;;;6.00;2.70;;;;;11.90;97023.60;;;;111131;1248;41260;-63
2022/09/26 02:59:16;;;;;;;5.80;2.70;;;;;11.90;97013.40;;;;111131;1248;41250;-62
2022/09/26 03:01:59;;;;;;;6.40;2.60;;;;;11.90;97011.80;;;;110741;1248;41256;-62
2022/09/26 03:04:37;;;;;;;11.40;2.90;;;;;12.00;97008.60;;;;111009;1248;41571;-62
2022/09/26 03:07:11;;;;;;;6.40;3.00;;;;;12.00;97010.80;;;;110904;1250;41394;-62
2022/09/26 03:09:41;;;;;;;6.10;2.60;;;;;12.06;97007.00;;;;111037;1248;41435;-62
2022/09/26 03:12:09;;;;;;;6.40;2.60;;;;;12.10;97009.40;;;;111023;1247;41428;-61
2022/09/26 03:14:40;;;;;;;6.10;2.80;;;;;12.10;97005.60;;;;110996;1248;41245;-61
2022/09/26 03:17:09;;;;;;;8.30;2.90;;;;;12.10;97005.80;;;;111041;1248;41636;-62
2022/09/26 03:19:54;;;;;;;8.00;3.20;;;;;12.10;97002.80;;;;110978;1248;41434;-62
2022/09/26 03:22:24;;;;;;;7.10;2.60;;;;;12.10;97000.20;;;;111046;1248;42130;-61
2022/09/26 03:24:52;;;;;;;5.80;2.60;;;;;12.10;96995.40;;;;110631;1250;41268;-60
2022/09/26 03:27:21;;;;;;;6.60;2.30;;;;;12.10;96990.00;;;;111004;1247;41126;-60
2022/09/26 03:29:51;;;;;;;6.40;2.70;;;;;12.12;96987.40;;;;110672;1250;41265;-60
2022/09/26 03:32:22;;;;;;;5.90;2.50;;;;;12.18;96990.60;;;;111052;1247;41623;-60
2022/09/26 03:34:51;;;;;;;6.10;2.90;;;;;12.20;97001.60;;;;110685;1249;41159;-60
2022/09/26 03:37:19;;;;;;;5.50;2.40;;;;;12.20;96997.80;;;;111122;1247;41145;-62
2022/09/26 03:39:47;;;;;;;7.20;2.90;;;;;12.20;96999.60;;;;111141;1247;41736;-61
2022/09/26 03:42:24;;;;;;;7.40;3.30;;;;;12.30;96992.40;;;;110804;1248;41262;-61
2022/09/26 03:44:55;;;;;;;6.60;2.90;;;;;12.30;96981.20;;;;111222;1249;41849;-62
2022/09/26 03:47:23;;;;;;;6.50;2.80;;;;;12.30;96973.80;;;;111237;1247;42019;-62
2022/09/26 03:49:53;;;;;;;7.20;2.80;;;;;12.30;96984.60;;;;111051;1248;41928;-62
2022/09/26 03:52:23;;;;;;;6.20;2.50;;;;;12.38;96985.00;;;;110809;1249;41281;-62
2022/09/26 03:54:53;;;;;;;6.30;2.60;;;;;12.40;96971.60;;;;111171;1247;41901;-62
2022/09/26 03:57:22;;;;;;;5.80;2.80;;;;;12.40;96966.60;;;;111169;1247;41730;-62
2022/09/26 03:59:58;;;;;;;7.20;2.80;;;;;12.40;96959.20;;;;111254;1247;41163;-62
2022/09/26 04:02:43;;;;;;;7.70;3.10;;;;;12.50;96959.20;;;;111208;1247;41468;-63
2022/09/26 04:05:18;;;;;;;7.00;2.90;;;;;12.50;96960.00;;;;110892;1248;41796;-60
2022/09/26 04:07:46;;;;;;;6.70;2.80;;;;;12.50;96970.00;;;;111116;1247;41253;-60
2022/09/26 04:10:14;;;;;;;7.10;2.70;;;;;12.50;96972.20;;;;111188;1249;41627;-60
2022/09/26 04:12:44;;;;;;;7.00;3.00;;;;;12.56;96965.60;;;;111143;1247;42183;-60
2022/09/26 04:15:11;;;;;;;7.30;3.10;;;;;12.60;96961.00;;;;110921;1247;41167;-60
2022/09/26 04:17:39;;;;;;;7.70;3.20;;;;;12.60;96959.40;;;;111174;1247;41364;-60
2022/09/26 04:20:08;;;;;;;6.10;2.60;;;;;12.60;96952.20;;;;111328;1247;41767;-60
2022/09/26 04:22:36;;;;;;;7.10;2.90;;;;;12.60;96952.60;;;;110880;1248;40994;-60
2022/09/26 04:25:05;;;;;;;6.80;3.00;;;;;12.60;96950.60;;;;111311;1247;41246;-61
2022/09/26 04:27:32;;;;;;;8.60;4.10;;;;;12.60;96948.20;;;;110887;1250;41138;-61
2022/09/26 04:30:00;;;;;;;7.40;3.30;;;;;12.64;96954.20;;;;111143;1247;41175;-62
2022/09/26 04:32:43;;;;;;;12.20;3.80;;;;;12.60;96957.40;;;;111030;1248;41269;-62
2022/09/26 04:35:32;;;;;;;6.80;3.00;;;;;12.60;96970.00;;;;110819;1250;41156;-62
2022/09/26 04:38:00;;;;;;;6.10;2.60;;;;;12.60;96974.60;;;;111136;1248;41349;-61
2022/09/26 04:40:28;;;;;;;7.10;2.80;;;;;12.60;96965.00;;;;110889;1250;41138;-61
2022/09/26 04:43:02;;;;;;;7.00;2.80;;;;;12.62;96964.40;;;;111167;1250;41355;-61
2022/09/26 04:45:30;;;;;;;10.90;4.50;;;;;12.60;96963.60;;;;110965;1249;41565;-61
2022/09/26 04:47:58;;;;;;;9.60;4.10;;;;;12.68;96964.20;;;;111114;1248;41270;-61
2022/09/26 04:50:27;;;;;;;10.70;5.10;;;;;12.60;96965.80;;;;111024;1248;41989;-62
2022/09/26 04:53:05;;;;;;;10.60;4.70;;;;;12.60;96967.60;;;;111138;1247;41637;-61
2022/09/26 04:55:36;;;;;;;11.60;4.80;;;;;12.50;96965.40;;;;111062;1247;41128;-61
2022/09/26 04:58:04;;;;;;;10.60;3.80;;;;;12.40;96953.00;;;;110809;1251;41174;-61
2022/09/26 05:00:32;;;;;;;7.50;3.00;;;;;12.40;96952.00;;;;111118;1248;40907;-61
2022/09/26 05:03:03;;;;;;;8.00;3.50;;;;;12.40;96956.40;;;;111113;1250;41013;-62
2022/09/26 05:05:31;;;;;;;7.30;2.90;;;;;12.46;96951.60;;;;111063;1249;41739;-62
2022/09/26 05:08:00;;;;;;;7.50;3.20;;;;;12.50;96945.60;;;;111030;1250;41156;-62
2022/09/26 05:10:28;;;;;;;7.60;2.90;;;;;12.60;96934.40;;;;110783;1251;41179;-61
2022/09/26 05:13:02;;;;;;;10.10;3.50;;;;;12.60;96922.00;;;;110935;1248;41262;-61
2022/09/26 05:15:30;;;;;;;12.30;4.40;;;;;12.66;96927.80;;;;110819;1248;41136;-61
2022/09/26 05:17:58;;;;;;;12.00;4.80;;;;;12.60;96934.40;;;;110891;1247;41257;-61
2022/09/26 05:20:30;;;;;;;15.40;4.70;;;;;12.60;96929.20;;;;110994;1249;41649;-61
2022/09/26 05:23:05;;;;;;;9.80;4.10;;;;;12.60;96933.60;;;;110836;1249;41159;-61
2022/09/26 05:28:26;;;;;;;8.70;3.40;;;;;12.68;96925.00;;;;110978;1248;41255;-62
2022/09/26 05:30:53;;;;;;;8.70;3.60;;;;;12.70;96922.00;;;;111095;1247;41617;-61
2022/09/26 05:33:21;;;;;;;7.80;3.60;;;;;12.76;96914.00;;;;110868;1249;41713;-61
2022/09/26 05:35:52;;;;;;;10.30;3.90;;;;;12.80;96915.60;;;;111068;1248;41258;-61
2022/09/26 05:38:20;;;;;;;8.60;4.10;;;;;12.90;96921.20;;;;110487;1249;385098;-61
2022/09/26 05:40:56;;;;;;;7.80;3.60;;;;;12.90;96928.20;;;;110926;1249;41266;-61
2022/09/26 05:43:27;;;;;;;7.20;3.20;;;;;13.00;96933.20;;;;111124;1247;42074;-62
2022/09/26 05:46:00;;;;;;;7.90;3.40;;;;;13.00;96933.40;;;;110965;1248;41180;-62
2022/09/26 05:48:33;;;;;;;9.10;3.70;;;;;13.00;96928.20;;;;110750;1249;41273;-62
2022/09/26 05:51:02;;;;;;;7.20;3.10;;;;;13.08;96920.00;;;;110782;1247;41934;-60
2022/09/26 05:53:31;;;;;;;9.50;3.40;;;;;13.10;96912.60;;;;110938;1247;41144;-62
2022/09/26 05:56:00;;;;;;;7.00;3.20;;;;;13.20;96903.00;;;;111069;1247;41664;-61
2022/09/26 05:58:46;;;;;;;8.00;3.60;;;;;13.20;96898.60;;;;111098;1247;41163;-60
2022/09/26 06:01:17;;;;;;;8.40;3.30;;;;;13.30;96894.00;;;;111060;1247;41614;-61
2022/09/26 06:03:46;;;;;;;8.10;3.30;;;;;13.36;96885.40;;;;111117;1247;41198;-62
2022/09/26 06:06:19;;;;;;;8.50;3.50;;;;;13.40;96881.00;;;;111080;1248;41150;-61
2022/09/26 06:08:47;;;;;;;7.20;3.20;;;;;13.50;96885.20;;;;111238;1247;41147;-62
2022/09/26 06:11:47;;;;;;;8.60;3.00;;;;;13.60;96891.60;;;;111063;1246;41281;-62
2022/09/26 06:14:16;;;;;;;6.70;2.60;;;;;13.60;96891.80;;;;111086;1246;41154;-62
2022/09/26 06:16:44;;;;;;;6.70;2.90;;;;;13.70;96888.20;;;;111074;1247;41153;-60
2022/09/26 06:19:13;;;;;;;7.40;3.00;;;;;13.70;96886.40;;;;111084;1247;41163;-59
2022/09/26 06:21:43;;;;;;;6.80;2.80;;;;;13.80;96884.20;;;;110824;1247;41157;-62
2022/09/26 06:24:13;;;;;;;7.40;3.10;;;;;13.80;96885.60;;;;111203;1247;41666;-61
2022/09/26 06:26:42;;;;;;;7.90;3.40;;;;;13.84;96883.60;;;;110903;1249;41713;-61
2022/09/26 06:29:10;;;;;;;8.20;3.20;;;;;13.90;96874.00;;;;111058;1247;41724;-61
2022/09/26 06:31:40;;;;;;;5.90;2.40;;;;;13.90;96884.60;;;;111006;1247;41601;-60
2022/09/26 06:34:13;;;;;;;7.20;2.70;;;;;14.00;96890.80;;;;111170;1247;41279;-61
2022/09/26 06:36:54;;;;;;;8.90;2.90;;;;;14.10;96893.00;;;;111061;1248;41176;-61
2022/09/26 06:39:21;;;;;;;6.40;2.80;;;;;14.12;96892.00;;;;111081;1248;41149;-61
2022/09/26 06:41:50;;;;;;;8.50;3.70;;;;;14.20;96882.20;;;;110764;1247;41150;-61
2022/09/26 06:44:50;;;;;;;6.90;2.80;;;;;14.30;96873.20;;;;110691;1248;42722;-61
2022/09/26 06:47:23;;;;;;;7.70;3.00;;;;;14.44;96877.40;;;;110584;1250;41173;-61
2022/09/26 06:50:11;;;;;;;9.50;3.30;;;;;14.60;96867.00;;;;110694;1248;42187;-62
2022/09/26 06:52:43;;;;;;;;;;;;;14.80;96868.00;;;;110652;1250;41548;-61
2022/09/26 06:55:10;;;;;;;9.00;3.40;;;;;14.90;96867.60;;;;111026;1247;41133;-61
2022/09/26 06:57:41;;;;;;;7.50;2.90;;;;;15.10;96871.80;;;;110609;1249;41145;-61
2022/09/26 07:00:13;;;;;;;7.20;3.10;;;;;15.20;96868.00;;;;110635;1250;41148;-61
2022/09/26 07:03:05;;;;;;;7.40;2.90;;;;;15.40;96867.00;;;;110584;1251;41146;-62
2022/09/26 07:05:56;;;;;;;7.30;3.20;;;;;15.60;96870.40;;;;110685;1250;41708;-62
2022/09/26 07:08:25;;;;;;;7.90;3.20;;;;;15.80;96860.60;;;;110654;1248;41159;-61
2022/09/26 07:11:14;;;;;;;7.60;3.10;;;;;16.00;96851.20;;;;110783;1248;41156;-61
2022/09/26 07:14:02;;;;;;;8.00;2.90;;;;;16.20;96851.40;;;;110693;1249;41081;-62
2022/09/26 07:16:30;;;;;;;8.30;3.40;;;;;16.44;96846.80;;;;111016;1249;41196;-62
2022/09/26 07:19:22;;;;;;;8.30;3.10;;;;;16.94;96841.80;;;;110712;1247;41632;-64
2022/09/26 07:22:15;;;;;;;8.00;3.00;;;;;17.50;96844.20;;;;110959;1249;41147;-60
2022/09/26 07:24:49;;;;;;;11.00;3.10;;;;;17.60;96843.60;;;;110698;1248;41720;-61
2022/09/26 07:27:17;;;;;;;7.50;3.00;;;;;17.60;96845.00;;;;111173;1247;41193;-60
2022/09/26 07:29:46;;;;;;;7.90;3.10;;;;;17.70;96841.00;;;;111049;1248;41150;-61
2022/09/26 07:32:15;;;;;;;6.80;2.70;;;;;17.58;96831.20;;;;111115;1247;41161;-61
2022/09/26 07:34:54;;;;;;;9.70;3.40;;;;;17.90;96822.00;;;;110946;1250;41463;-61
2022/09/26 07:37:22;;;;;;;9.30;2.60;;;;;18.50;96824.20;;;;110708;1249;41250;-61
2022/09/26 07:39:50;;;;;;;6.20;2.30;;;;;18.90;96829.40;;;;110822;1249;42007;-60
2022/09/26 07:42:21;;;;;;;6.10;2.70;;;;;19.12;96843.40;;;;110674;1248;41608;-60
2022/09/26 07:44:49;;;;;;;5.50;2.30;;;;;18.98;96842.20;;;;111038;1248;41253;-60
2022/09/26 07:50:52;;;;;;;7.20;2.20;;;;;18.60;96846.00;;;;111010;1248;41262;-60
2022/09/26 07:53:28;;;;;;;5.90;2.10;;;;;18.50;96848.20;;;;110994;1249;41157;-61
2022/09/26 07:56:15;;;;;;;5.70;2.30;;;;;18.48;96840.60;;;;111046;1249;41130;-60
2022/09/26 07:59:13;;;;;;;4.60;2.00;;;;;18.40;96833.60;;;;111073;1247;41137;-60
2022/09/26 08:02:01;;;;;;;7.30;2.50;;;;;18.50;96827.00;;;;111022;1247;41324;-60
2022/09/26 08:04:34;;;;;;;8.20;2.80;;;;;18.60;96819.40;;;;111035;1247;41598;-61
2022/09/26 08:07:03;;;;;;;7.10;2.40;;;;;18.80;96808.80;;;;111070;1247;41164;-60
2022/09/26 08:09:31;;;;;;;7.60;2.60;;;;;19.00;96807.20;;;;110929;1249;41162;-60
2022/09/26 08:12:12;;;;;;;4.70;2.00;;;;;19.30;96806.40;;;;111108;1248;41940;-59
2022/09/26 08:15:06;;;;;;;6.40;2.70;;;;;19.68;96802.20;;;;111018;1247;41243;-61
2022/09/26 08:17:40;;;;;;;5.70;2.50;;;;;20.04;96795.60;;;;111122;1247;41819;-60
2022/09/26 08:20:09;;;;;;;6.70;2.60;;;;;20.28;96790.20;;;;110950;1249;41258;-61
2022/09/26 08:22:36;;;;;;;7.30;2.60;;;;;20.50;96792.00;;;;111043;1247;41129;-61
2022/09/26 08:25:06;;;;;;;6.40;2.50;;;;;20.50;96792.40;;;;111095;1246;41685;-61
2022/09/26 08:27:42;;;;;;;5.80;2.40;;;;;20.50;96790.20;;;;111152;1247;41898;-61
2022/09/26 08:30:10;;;;;;;5.40;2.30;;;;;20.50;96795.20;;;;110900;1249;41138;-62
2022/09/26 08:32:38;;;;;;;7.70;2.60;;;;;20.50;96803.80;;;;110960;1249;41270;-61
2022/09/26 08:35:10;;;;;;;6.70;2.30;;;;;20.20;96802.40;;;;111056;1248;41152;-61
2022/09/26 08:37:39;;;;;;;3.80;2.10;;;;;20.10;96794.80;;;;111148;1247;41656;-63
2022/09/26 08:40:39;;;;;;;7.70;2.40;;;;;20.20;96791.60;;;;111080;1248;41154;-61
2022/09/26 08:43:40;;;;;;;;;;;;;20.40;96791.60;;;;111072;1247;41945;-61
2022/09/26 08:49:28;;;;;;;4.30;2.10;;;;;20.80;96767.40;;;;111078;1247;41727;-61
2022/09/26 08:51:58;;;;;;;5.00;2.20;;;;;21.06;96780.80;;;;111016;1249;41298;-60
2022/09/26 08:54:37;;;;;;;8.20;3.10;;;;;21.58;96767.00;;;;111000;1247;41136;-60
2022/09/26 08:57:23;;;;;;;6.00;2.30;;;;;23.08;96751.60;;;;110862;1248;41204;-60
2022/09/26 08:59:53;;;;;;;5.70;2.50;;;;;24.52;96749.80;;;;111027;1247;42255;-61
2022/09/26 09:02:29;;;;;;;5.20;2.20;;;;;24.82;96740.20;;;;111059;1247;41487;-60
2022/09/26 09:05:09;;;;;;;5.10;1.80;;;;;25.38;96720.40;;;;110917;1249;41740;-60
2022/09/26 09:07:40;;;;;;;;;;;;;26.50;96725.20;;;;111071;1247;41124;-60
2022/09/26 09:10:15;;;;;;;7.10;2.20;;;;;27.78;96727.60;;;;111069;1248;41151;-60
2022/09/26 09:13:22;;;;;;;6.60;2.40;;;;;28.76;96719.80;;;;110989;1248;41255;-61
2022/09/26 09:16:24;;;;;;;5.20;2.00;;;;;29.00;96716.80;;;;110968;1247;41243;-60
2022/09/26 09:19:25;;;;;;;5.90;2.10;;;;;29.22;96709.00;;;;110820;1248;41461;-61
2022/09/26 09:22:22;;;;;;;5.50;1.90;;;;;28.80;96704.00;;;;111037;1247;41128;-61
2022/09/26 09:25:31;;;;;;;5.20;2.00;;;;;27.68;96711.00;;;;111033;1246;42184;-60
2022/09/26 09:28:14;;;;;;;3.70;1.90;;;;;26.38;96715.60;;;;110912;1247;41523;-61
2022/09/26 09:30:43;;;;;;;5.60;2.30;;;;;25.80;96719.40;;;;111109;1247;41139;-61
2022/09/26 09:33:26;;;;;;;6.00;2.20;;;;;25.32;96719.80;;;;111117;1247;41455;-61
2022/09/26 09:36:19;;;;;;;6.50;2.00;;;;;24.68;96718.20;;;;111089;1247;41534;-60
2022/09/26 09:39:07;;;;;;;7.20;2.20;;;;;24.44;96719.60;;;;111067;1247;41734;-60
2022/09/26 09:41:51;;;;;;;4.80;2.00;;;;;23.60;96724.00;;;;110993;1247;41160;-60
2022/09/26 09:44:40;;;;;;;5.50;2.00;;;;;23.50;96730.40;;;;111044;1247;41270;-60
2022/09/26 09:47:15;;;;;;;6.60;2.40;;;;;23.30;96732.00;;;;111006;1247;42664;-59
2022/09/26 09:49:44;;;;;;;5.40;2.20;;;;;23.24;96736.00;;;;111090;1247;41169;-60
2022/09/26 09:52:21;;;;;;;8.30;2.30;;;;;23.20;96741.60;;;;110957;1248;41322;-60
2022/09/26 09:55:16;;;;;;;4.90;2.00;;;;;22.78;96738.60;;;;111058;1247;41255;-60
2022/09/26 09:58:07;;;;;;;6.20;2.30;;;;;23.76;96721.80;;;;111055;1247;42520;-60
2022/09/26 10:00:40;;;;;;;5.20;2.10;;;;;24.62;96720.80;;;;111066;1247;41559;-60
2022/09/26 10:03:44;;;;;;;6.90;2.20;;;;;24.50;96731.00;;;;110783;1247;41289;-60
2022/09/26 10:06:12;;;;;;;5.70;2.30;;;;;24.00;96742.40;;;;110674;1248;41947;-60
2022/09/26 10:09:26;;;;;;;6.30;2.20;;;;;23.80;96739.00;;;;111014;1246;41240;-60
2022/09/26 10:12:27;;;;;;;5.00;2.10;;;;;23.54;96734.80;;;;111049;1247;42091;-60
2022/09/26 10:15:21;;;;;;;5.00;2.10;;;;;23.34;96738.00;;;;111060;1247;41250;-60
2022/09/26 10:18:15;;;;;;;6.00;2.40;;;;;22.96;96737.00;;;;111027;1247;42115;-60
2022/09/26 10:21:10;;;;;;;6.20;2.20;;;;;22.40;96725.00;;;;111007;1248;41789;-60
2022/09/26 10:23:43;;;;;;;4.90;2.00;;;;;22.28;96728.20;;;;110969;1249;41717;-61
2022/09/26 10:26:22;;;;;;;6.90;2.40;;;;;22.20;96727.00;;;;111035;1247;41604;-61
2022/09/26 10:28:54;;;;;;;6.60;2.40;;;;;22.30;96730.80;;;;110710;1248;41898;-61
2022/09/26 10:31:34;;;;;;;3.50;1.80;;;;;22.20;96738.00;;;;110874;1247;41250;-60
2022/09/26 10:34:23;;;;;;;5.60;2.30;;;;;22.10;96732.40;;;;111062;1247;41132;-60
2022/09/26 10:36:51;;;;;;;5.50;2.30;;;;;22.00;96723.60;;;;111007;1247;41131;-60
2022/09/26 10:42:20;;;;;;;6.60;2.10;;;;;21.92;96722.40;;;;111007;1247;41170;-61
2022/09/26 10:44:49;;;;;;;6.80;2.50;;;;;22.06;96726.20;;;;111168;1247;42055;-60
2022/09/26 10:47:23;;;;;;;7.30;2.40;;;;;22.32;96730.60;;;;110744;1249;41258;-60
2022/09/26 10:50:08;;;;;;;6.90;2.50;;;;;22.54;96729.00;;;;111044;1248;41148;-59
2022/09/26 10:53:08;;;;;;;4.30;2.00;;;;;22.70;96721.20;;;;110773;1247;42144;-60
2022/09/26 10:55:56;;;;;;;6.30;2.30;;;;;22.74;96714.40;;;;110965;1249;41710;-61
2022/09/26 10:58:26;;;;;;;5.00;2.10;;;;;22.90;96717.40;;;;110939;1249;42742;-61
2022/09/26 11:00:59;;;;;;;6.40;2.20;;;;;23.08;96718.60;;;;111087;1247;41149;-61
2022/09/26 11:03:40;;;;;;;5.60;2.00;;;;;23.24;96702.20;;;;111054;1247;41161;-61
2022/09/26 11:06:25;;;;;;;5.20;2.00;;;;;23.98;96691.80;;;;111136;1247;41724;-61
2022/09/26 11:08:58;;;;;;;5.50;2.60;;;;;24.54;96683.00;;;;111118;1247;41544;-60
2022/09/26 11:11:38;;;;;;;5.90;2.20;;;;;24.96;96668.00;;;;110987;1247;41204;-60
2022/09/26 11:14:08;;;;;;;4.20;1.90;;;;;24.88;96663.60;;;;111028;1248;41155;-61
2022/09/26 11:16:38;;;;;;;5.30;2.10;;;;;25.16;96651.80;;;;110754;1250;41832;-60
2022/09/26 11:19:43;;;;;;;3.70;1.80;;;;;25.38;96654.80;;;;110687;1251;41193;-61
2022/09/26 11:22:21;;;;;;;5.70;2.20;;;;;25.96;96648.80;;;;110391;1254;41290;-60
2022/09/26 11:25:14;;;;;;;5.50;2.10;;;;;26.32;96653.40;;;;111128;1248;42004;-60
2022/09/26 11:27:44;;;;;;;4.20;1.90;;;;;26.60;96664.00;;;;111013;1249;41597;-60
2022/09/26 11:30:19;;;;;;;5.20;2.20;;;;;26.02;96660.00;;;;111072;1249;41260;-60
2022/09/26 11:32:57;;;;;;;;;;;;;25.92;96662.00;;;;111172;1247;41162;-61
2022/09/26 11:36:04;;;;;;;5.00;2.10;;;;;25.86;96675.00;;;;111202;1247;41328;-61
2022/09/26 11:38:38;;;;;;;6.20;2.20;;;;;25.60;96676.20;;;;111154;1247;41264;-61
2022/09/26 11:41:35;;;;;;;6.50;2.20;;;;;25.04;96681.80;;;;110990;1249;41206;-60
2022/09/26 11:44:49;;;;;;;6.60;2.20;;;;;24.68;96692.00;;;;111121;1247;41610;-61
2022/09/26 11:47:43;;;;;;;8.50;2.30;;;;;24.02;96695.80;;;;110957;1248;41364;-61
2022/09/26 11:50:23;;;;;;;7.50;2.40;;;;;23.72;96674.20;;;;110742;1249;41377;-60
2022/09/26 11:53:45;;;;;;;4.80;2.20;;;;;23.80;96673.40;;;;111061;1247;41186;-61
2022/09/26 11:56:34;;;;;;;5.70;2.30;;;;;24.20;96665.00;;;;111107;1247;41137;-60
2022/09/26 11:59:27;;;;;;;5.00;2.20;;;;;24.64;96667.60;;;;111168;1247;41183;-63
2022/09/26 12:02:31;;;;;;;6.30;2.40;;;;;24.50;96668.20;;;;111181;1247;41261;-62
2022/09/26 12:05:23;;;;;;;5.60;2.10;;;;;24.32;96666.80;;;;111069;1247;41659;-61
2022/09/26 12:08:07;;;;;;;5.30;2.10;;;;;24.20;96661.60;;;;111137;1247;41247;-60
2022/09/26 12:10:49;;;;;;;5.40;2.20;;;;;23.90;96664.20;;;;111151;1247;41133;-60
2022/09/26 12:13:34;;;;;;;6.60;2.10;;;;;23.80;96666.80;;;;111181;1247;41702;-61
2022/09/26 12:16:20;;;;;;;5.50;2.00;;;;;23.72;96657.80;;;;111220;1247;42369;-60
2022/09/26 12:19:04;;;;;;;6.90;2.40;;;;;23.70;96652.40;;;;111167;1246;42007;-61
2022/09/26 12:24:45;;;;;;;5.90;2.10;;;;;23.40;96650.80;;;;111083;1247;41326;-60
2022/09/26 12:27:24;;;;;;;5.10;2.00;;;;;23.40;96645.00;;;;111100;1247;41150;-61
2022/09/26 12:30:06;;;;;;;5.30;1.90;;;;;23.50;96646.00;;;;110883;1249;41606;-60
2022/09/26 12:32:45;;;;;;;5.50;2.10;;;;;23.86;96641.60;;;;111082;1247;41169;-63
2022/09/26 12:35:19;;;;;;;3.10;1.70;;;;;24.12;96643.20;;;;111215;1247;42398;-61
2022/09/26 12:38:26;;;;;;;6.20;2.30;;;;;24.30;96645.60;;;;111228;1247;41159;-62
2022/09/26 12:41:13;;;;;;;5.40;2.20;;;;;24.32;96645.20;;;;111049;1248;41213;-62
2022/09/26 12:44:04;;;;;;;5.40;2.10;;;;;24.30;96641.40;;;;111084;1248;42274;-62
2022/09/26 12:47:03;;;;;;;5.30;2.10;;;;;24.28;96639.40;;;;111118;1248;40877;-61
2022/09/26 12:49:46;;;;;;;5.10;2.20;;;;;24.30;96641.00;;;;111301;1247;41007;-61
2022/09/26 12:52:29;;;;;;;6.50;2.30;;;;;24.30;96642.00;;;;111268;1247;41858;-62
2022/09/26 12:55:14;;;;;;;5.00;2.00;;;;;24.20;96644.20;;;;111085;1247;41377;-60
2022/09/26 12:57:42;;;;;;;4.50;1.90;;;;;24.20;96644.80;;;;111161;1247;41132;-62
2022/09/26 13:00:15;;;;;;;7.90;2.30;;;;;24.00;96647.80;;;;110847;1249;41143;-61
2022/09/26 13:03:13;;;;;;;6.10;2.10;;;;;23.98;96638.60;;;;110996;1249;41314;-60
2022/09/26 13:06:03;;;;;;;5.50;2.00;;;;;23.80;96638.80;;;;110892;1247;41259;-61
2022/09/26 13:08:46;;;;;;;5.60;1.90;;;;;23.60;96640.00;;;;111068;1245;41237;-61
2022/09/26 13:11:40;;;;;;;5.40;1.80;;;;;23.50;96639.00;;;;111082;1247;41521;-65
2022/09/26 13:14:33;;;;;;;5.30;2.00;;;;;23.50;96639.40;;;;111075;1247;41192;-61
2022/09/26 13:17:08;;;;;;;4.00;1.90;;;;;23.50;96636.20;;;;111217;1247;41261;-61
2022/09/26 13:19:40;;;;;;;5.50;2.20;;;;;23.50;96639.60;;;;111110;1247;41159;-60
2022/09/26 13:22:08;;;;;;;5.40;2.20;;;;;23.50;96632.80;;;;111133;1247;41832;-61